Oak Grove, Minnesota
Current Conditions -  °F | °C
As of 1:45 PM on Thursday 29 Jan 2015 (Local Time) from KANE Reporting Station
Overcast Overcast  
Wind Chill: 18°   Ceiling: 2800
Heat Index: 30°   Visibility: 10mi
Dew Point: 19°   Wind: 17mph
Humidity: 64%   Direction: 310°NW
Pressure: 30.26"   Gusts: 28mph
Location:  45.2924°N, 93.4325°W
Report Text: KANE 291945Z 31015G24KT 10SM OVC028 M01/M07 A3026
Loading
Personal Weather Stations






























Interactive Weather Map New forecast layout! Learn more

10-Day Weather Forecast

Advertisements
Track Severe Weather on mobile